createdAt,value
2022-09-26T00:02:21.258Z,93857.97
2022-09-26T00:07:23.518Z,93877.53
2022-09-26T00:12:25.397Z,93873.03
2022-09-26T00:17:27.360Z,93882.91
2022-09-26T00:22:29.523Z,93888.59
2022-09-26T00:27:31.515Z,93895.50
2022-09-26T00:32:33.540Z,93889.44
2022-09-26T00:37:35.678Z,93897.22
2022-09-26T00:42:38.052Z,93892.91
2022-09-26T00:47:59.686Z,93892.91
2022-09-26T00:53:14.827Z,93856.34
2022-09-26T00:58:24.017Z,93865.38
2022-09-26T01:03:26.435Z,93867.16
2022-09-26T01:08:36.130Z,93889.75
2022-09-26T01:13:39.314Z,93882.47
2022-09-26T01:18:41.624Z,93885.00
2022-09-26T01:24:13.607Z,93873.06
2022-09-26T01:29:42.207Z,93864.59
2022-09-26T01:35:08.339Z,93870.66
2022-09-26T01:40:32.481Z,93863.59
2022-09-26T01:45:49.669Z,93856.34
2022-09-26T01:51:20.677Z,93868.81
2022-09-26T01:56:26.473Z,93885.34
2022-09-26T02:01:31.925Z,93879.47
2022-09-26T02:06:40.120Z,93883.94
2022-09-26T02:11:44.020Z,93876.66
2022-09-26T02:16:50.257Z,93876.91
2022-09-26T02:21:52.540Z,93867.44
2022-09-26T02:26:55.036Z,93847.66
2022-09-26T02:32:00.574Z,93861.56
2022-09-26T02:37:06.633Z,93859.72
2022-09-26T02:42:44.416Z,93857.13
2022-09-26T02:48:04.528Z,93863.91
2022-09-26T02:53:10.735Z,93836.16
2022-09-26T02:58:46.981Z,93868.25
2022-09-26T03:04:00.140Z,93860.72
2022-09-26T03:09:03.054Z,93855.38
2022-09-26T03:14:05.414Z,93864.53
2022-09-26T03:19:38.687Z,93864.53
2022-09-26T03:24:43.062Z,93864.03
2022-09-26T03:29:46.403Z,93856.06
2022-09-26T03:34:54.434Z,93825.03
2022-09-26T03:39:56.491Z,93870.28
2022-09-26T03:45:11.518Z,93858.00
2022-09-26T03:50:39.881Z,93843.31
2022-09-26T03:55:41.843Z,93850.91
2022-09-26T04:00:43.888Z,93847.03
2022-09-26T04:05:46.212Z,93843.41
2022-09-26T04:10:48.171Z,93826.00
2022-09-26T04:15:56.248Z,93832.59
2022-09-26T04:21:01.263Z,93851.25
2022-09-26T04:26:22.863Z,93828.13
2022-09-26T04:31:27.891Z,93866.44
2022-09-26T04:36:37.453Z,93865.31
2022-09-26T04:41:39.513Z,93867.06
2022-09-26T04:46:41.448Z,93836.44
2022-09-26T04:51:44.176Z,93823.69
2022-09-26T04:56:46.761Z,93861.00
2022-09-26T05:01:48.929Z,93879.16
2022-09-26T05:07:00.215Z,93879.47
2022-09-26T05:12:05.197Z,93857.78
2022-09-26T05:17:10.381Z,93865.16
2022-09-26T05:22:12.883Z,93890.72
2022-09-26T05:27:15.448Z,93882.75
2022-09-26T05:32:20.862Z,93849.16
2022-09-26T05:37:25.114Z,93867.28
2022-09-26T05:42:27.045Z,93874.53
2022-09-26T05:47:32.437Z,93878.84
2022-09-26T05:52:34.797Z,93898.59
2022-09-26T05:57:36.909Z,93898.28
2022-09-26T06:02:39.094Z,93904.03
2022-09-26T06:08:07.396Z,93905.03
2022-09-26T06:13:21.499Z,93899.56
2022-09-26T06:18:24.696Z,93932.97
2022-09-26T06:23:26.759Z,93925.94
2022-09-26T06:28:28.909Z,93932.72
2022-09-26T06:33:33.388Z,93932.56
2022-09-26T06:38:54.897Z,93954.69
2022-09-26T06:43:57.244Z,93950.09
2022-09-26T06:49:28.711Z,93965.72
2022-09-26T06:54:37.352Z,93981.09
2022-09-26T06:59:39.312Z,93943.69
2022-09-26T07:04:53.353Z,93999.41
2022-09-26T07:10:08.471Z,94004.31
2022-09-26T07:15:41.005Z,94023.47
2022-09-26T07:28:26.167Z,94027.28
2022-09-26T07:33:28.266Z,94004.22
2022-09-26T07:38:32.070Z,94026.16
2022-09-26T07:44:19.238Z,94034.28
2022-09-26T07:49:16.199Z,94023.97
2022-09-26T08:01:49.139Z,94021.06
2022-09-26T08:07:10.074Z,94021.75
2022-09-26T08:12:18.366Z,94036.13
2022-09-26T08:17:43.564Z,94036.91
2022-09-26T08:22:46.005Z,94006.91
2022-09-26T08:27:50.734Z,94048.13
2022-09-26T08:32:54.864Z,94055.47
2022-09-26T08:38:01.897Z,94048.38
2022-09-26T08:43:40.151Z,94056.00
2022-09-26T08:49:06.821Z,94067.97
2022-09-26T08:54:33.188Z,94041.84
2022-09-26T08:59:42.893Z,94072.31
2022-09-26T09:04:57.675Z,94060.50
2022-09-26T09:10:04.239Z,94076.50
2022-09-26T09:15:57.120Z,94073.50
2022-09-26T09:21:23.636Z,94065.91
2022-09-26T09:32:26.182Z,94081.00
2022-09-26T09:37:51.280Z,94076.63
2022-09-26T09:43:15.534Z,94073.25
2022-09-26T09:48:17.793Z,94065.50
2022-09-26T09:53:31.903Z,94066.66
2022-09-26T09:59:15.978Z,94071.44
2022-09-26T10:19:03.599Z,94034.03
2022-09-26T10:24:22.334Z,94051.13
2022-09-26T10:29:36.994Z,94034.28
2022-09-26T10:34:39.809Z,94056.59
2022-09-26T10:40:00.416Z,94041.00
2022-09-26T10:45:12.234Z,94026.91
2022-09-26T10:50:55.979Z,94003.66
2022-09-26T10:56:23.621Z,94023.59
2022-09-26T11:01:28.216Z,94027.25
2022-09-26T11:06:47.142Z,94019.69
2022-09-26T11:11:56.383Z,94020.75
2022-09-26T11:17:02.752Z,93984.72
2022-09-26T11:22:08.678Z,93995.53
2022-09-26T11:27:31.579Z,94027.44
2022-09-26T11:32:41.272Z,94024.66
2022-09-26T11:38:15.746Z,94028.88
2022-09-26T11:43:40.588Z,94021.84
2022-09-26T11:49:26.015Z,94026.72
2022-09-26T11:55:19.116Z,93997.84
2022-09-26T12:00:29.257Z,94020.38
2022-09-26T12:05:52.403Z,93991.06
2022-09-26T12:11:10.173Z,94006.91
2022-09-26T12:16:38.088Z,93996.91
2022-09-26T12:22:24.232Z,93956.31
2022-09-26T12:28:05.906Z,93974.06
2022-09-26T12:33:26.035Z,93935.06
2022-09-26T12:38:43.512Z,93962.91
2022-09-26T12:44:07.959Z,93958.19
2022-09-26T12:49:31.689Z,93921.13
2022-09-26T12:54:40.471Z,93941.94
2022-09-26T12:59:45.345Z,93948.88
2022-09-26T13:04:59.527Z,93935.00
2022-09-26T13:24:57.274Z,93930.31
2022-09-26T13:30:04.223Z,93885.47
2022-09-26T13:35:24.135Z,93909.84
2022-09-26T13:40:42.513Z,93916.00
2022-09-26T13:46:00.262Z,93905.56
2022-09-26T13:51:18.645Z,93888.56
2022-09-26T13:56:36.254Z,93920.22
2022-09-26T14:01:40.483Z,93909.38
2022-09-26T14:07:41.085Z,93904.75
2022-09-26T14:13:08.563Z,93911.66
2022-09-26T14:18:15.674Z,93915.47
2022-09-26T14:23:51.537Z,93915.44
2022-09-26T14:29:25.198Z,93888.56
2022-09-26T14:34:30.667Z,93897.97
2022-09-26T14:39:40.557Z,93896.84
2022-09-26T14:44:47.492Z,93883.53
2022-09-26T14:49:58.248Z,93882.03
2022-09-26T14:55:02.694Z,93882.00
2022-09-26T15:00:38.814Z,93883.16
2022-09-26T15:05:41.583Z,93885.09
2022-09-26T15:10:43.583Z,93889.75
2022-09-26T15:15:56.461Z,93896.25
2022-09-26T15:21:04.710Z,93884.59
2022-09-26T15:26:06.958Z,93891.09
2022-09-26T15:31:25.376Z,93891.44
2022-09-26T15:36:32.293Z,93880.22
2022-09-26T15:42:06.658Z,93888.44
2022-09-26T15:47:30.522Z,93881.09
2022-09-26T15:52:35.484Z,93861.78
2022-09-26T15:57:37.515Z,93879.25
2022-09-26T16:02:39.546Z,93873.44
2022-09-26T16:07:47.994Z,93863.75
2022-09-26T16:12:51.293Z,93875.00
2022-09-26T16:17:57.274Z,93873.84
2022-09-26T16:23:05.495Z,93869.63
2022-09-26T16:28:10.290Z,93868.88
2022-09-26T16:33:31.818Z,93865.81
2022-09-26T16:46:17.667Z,93855.63
2022-09-26T16:51:22.332Z,93880.75
2022-09-26T16:56:25.117Z,93888.50
2022-09-26T17:01:45.578Z,93890.81
2022-09-26T17:06:47.711Z,93885.03
2022-09-26T17:11:51.877Z,93891.28
2022-09-26T17:16:57.247Z,93890.13
2022-09-26T17:22:01.708Z,93895.22
2022-09-26T17:27:05.659Z,93895.25
2022-09-26T17:32:12.683Z,93901.84
2022-09-26T17:37:16.744Z,93899.56
2022-09-26T17:42:19.433Z,93908.06
2022-09-26T17:47:21.433Z,93910.03
2022-09-26T17:52:31.474Z,93918.16
2022-09-26T17:57:38.251Z,93928.97
2022-09-26T18:02:45.652Z,93925.09
2022-09-26T18:15:21.211Z,93936.28
2022-09-26T18:20:30.203Z,93919.63
2022-09-26T18:25:33.165Z,93941.69
2022-09-26T18:30:42.855Z,93937.78
2022-09-26T18:35:45.848Z,93947.44
2022-09-26T18:40:50.971Z,93953.97
2022-09-26T18:45:53.308Z,93958.16
2022-09-26T18:50:57.697Z,93932.94
2022-09-26T18:56:18.369Z,93977.44
2022-09-26T19:01:34.816Z,93988.56
2022-09-26T19:06:37.391Z,93994.28
2022-09-26T19:11:39.650Z,94001.59
2022-09-26T19:16:43.289Z,94005.78
2022-09-26T19:21:48.850Z,94007.28
2022-09-26T19:26:56.746Z,94005.63
2022-09-26T19:31:59.131Z,93987.63
2022-09-26T19:37:03.269Z,94012.44
2022-09-26T19:42:05.702Z,94033.19
2022-09-26T19:47:14.936Z,94010.16
2022-09-26T19:52:18.363Z,94029.28
2022-09-26T19:57:22.001Z,94032.72
2022-09-26T20:02:31.919Z,94041.06
2022-09-26T20:07:34.495Z,94050.56
2022-09-26T20:12:36.376Z,94055.53
2022-09-26T20:17:38.902Z,94052.28
2022-09-26T20:22:42.603Z,94035.75
2022-09-26T20:27:44.568Z,94037.06
2022-09-26T20:32:46.997Z,94071.88
2022-09-26T20:37:48.965Z,94077.00
2022-09-26T20:42:55.403Z,94084.97
2022-09-26T20:47:59.549Z,94079.44
2022-09-26T20:53:01.834Z,94085.00
2022-09-26T20:58:36.425Z,94085.78
2022-09-26T21:03:42.475Z,94080.34
2022-09-26T21:08:48.084Z,94090.22
2022-09-26T21:13:50.589Z,94092.34
2022-09-26T21:18:52.987Z,94098.81
2022-09-26T21:23:55.639Z,94079.31
2022-09-26T21:28:58.261Z,94092.50
2022-09-26T21:34:00.872Z,94058.88
2022-09-26T21:39:03.120Z,94101.84
2022-09-26T21:44:13.870Z,94103.22
2022-09-26T21:49:16.056Z,94096.84
2022-09-26T21:54:22.579Z,94101.44
2022-09-26T21:59:25.206Z,94115.28
2022-09-26T22:04:27.214Z,94123.47
2022-09-26T22:09:29.425Z,94130.63
2022-09-26T22:14:31.365Z,94129.91
2022-09-26T22:19:34.564Z,94133.03
2022-09-26T22:24:37.174Z,94136.00
2022-09-26T22:29:39.174Z,94134.69
2022-09-26T22:34:41.125Z,94123.13
2022-09-26T22:39:43.044Z,94140.81
2022-09-26T22:44:45.029Z,94137.19
2022-09-26T22:49:47.018Z,94148.81
2022-09-26T22:54:48.901Z,94147.38
2022-09-26T22:59:50.784Z,94129.00
2022-09-26T23:04:52.773Z,94135.69
2022-09-26T23:09:54.980Z,94134.13
2022-09-26T23:14:57.041Z,94140.53
2022-09-26T23:19:59.034Z,94140.88
2022-09-26T23:25:01.087Z,94134.75
2022-09-26T23:30:03.365Z,94146.97
2022-09-26T23:35:06.234Z,94135.69
2022-09-26T23:40:09.195Z,94120.38
2022-09-26T23:45:11.211Z,94125.50
2022-09-26T23:50:13.262Z,94117.97
2022-09-26T23:55:15.213Z,94122.91
